Hauptseite
METAR-TAF:

METAR-TAF

Flughäfen :

Flughafen Nantes

Nantes, Frankreich

Breite: 47-10N, Länge: 001-36W, Höhe: 27 m

Beobachtung

Neuester Wetterbericht von vor 23 Minuten, um 19:00 UTC
Wind 4 kt aus Nordwest, variierte zwischen West und Nord
Temperatur 30°C
Luftfeuchtigkeit 31%
Luftdruck 1014 hPa
Sichtweite 10 km oder mehr
keine Wolken unter 1500 m und keine Kumulonimbus oder Gewitterwolken

METAR: LFRS 061900Z AUTO 31004KT 270V010 CAVOK 30/11 Q1014 NOSIG

Zeit: 21:23 (19:23 UTC)

Prognose

Neuester Wetterbericht von vor 2 Stunden und 23 Minuten, um 17:00 UTC
Gültige Prognose vom 06 um 18 UTC bis 07 um 24 UTC
Wind 4 kt aus unterschiedlichen Richtungen
Sichtweite 10 km oder mehr
keine Wolken unter 1500 m und keine Kumulonimbus oder Gewitterwolken
Zeitweise
vom 07 um 13 UTC bis 07 um 18 UTC
Wind 10 kt aus West/Südwest

TAF: LFRS 061700Z 0618/0724 VRB04KT CAVOK TEMPO 0713/0718 25010KT

Wetterbeobachtungen und Prognosen von mehr als 4000 Flughäfen (METAR und TAF Bericht).

Die verfügbaren Stationen werden durch gelbe und rote Markierungen auf der Karte dargestellt.

Führen Sie die Maus auf sie, um den Namen der Station zu sehen.

Darauf klicken, um die Beobachtung von Wetterbeobachtungen und Prognosen zu sehen.

Um die Karte zu ändern : klicken Sie auf den grünen Tasten mit einem schwarzen Kreuz Zum Vergrößern, auf den grünen Button mit einem Gedankenstrich zu verkleinern, oder auf die grünen Pfeile für benachbarte Karten.


METAR-TAF: